MIP weather

Ramon Air Base
Beersheba, Southern District, Israel

Public forecast

Using degrees Celsius for public forecast. Weather courtesy of forecast.io.

METAR (pilot weather report)

Closest report is El Arish International Airport, 46.4 nm (85.9 km) WNW. Retrieved 2019/03/26 21:00 UTC (1 hour ago):

HEAR 262100Z 17002KT CAVOK 13/09 Q1017 NOSIG

TAF (pilot weather forecast)

Forecast is more than 12 hours old.

Closest forecast is El Gora Airport, 32.8 nm (60.7 km) WNW. Retrieved 2018/10/31 07:00 UTC (5 months ago):

TAF HEGR 310700Z 3107/0112 34009KT 9999 SCT020 BECMG 3119/3121 VRB03KT CAVOK BECMG 0107/0109 36008KT